Dulzura, CA

11:53 AM PDT on August 30, 2014 (GMT -0700)
Deerhorn Valley- Rock Bottom Ranch | Change Station
CLOSE
Current Station
Personal Weather Station
Location: Jamul, CA
Elevation: 2533 ft
Nearby Weather Stations

Elev 2533 ft 32.65 °N, 116.73 °W | Updated 2 minutes ago

Clear
Clear
95.8 °F
Feels Like 91 °F
N
3.2
Wind Variable Wind from South

Today
High -- | Low -- °F
--% Chance of Precip.
Yesterday
High -- | Low -- °F
Precip. -- in
6:20 AM 7:14 PM
Waxing Crescent, 24% visible
Pressure 29.83 in
Visibility 10.0 miles
Clouds Clear
Heat Index 91 °F
Dew Point 33 °F
Humidity 11%
Rainfall 0.00 in
Snow Depth Not available.
UV 8 out of 12
Pollen 8.10 out of 12
Ozone Good
PM2.5 Moderate
Flu Activity Not available.
METAR KSDM 301753Z 30004KT 10SM CLR 25/17 A2984 RMK AO2 SLP100 T02500167 10256 20189 58001 $

More Conditions Fewer Conditions

Pressure 29.83 in
Visibility 10.0 miles
Clouds Clear
Heat Index 91 °F
Dew Point 33 °F
Humidity 11%
Rainfall 0.00 in
Snow Depth Not available.
UV 8 out of 12
Pollen 8.10 out of 12
Ozone Good
PM2.5 Moderate
Flu Activity Not available.
METAR KSDM 301753Z 30004KT 10SM CLR 25/17 A2984 RMK AO2 SLP100 T02500167 10256 20189 58001 $

More Conditions Fewer Conditions

10-Day Weather Forecast

Almanac

Astronomy

Aug. 30, 2014 Rise Set
Actual Time 6:20 AM PDT 7:14 PM PDT
Civil Twilight 5:55 AM PDT 7:39 PM PDT
Nautical Twilight 5:25 AM PDT 8:08 PM PDT
Astronomical Twilight 4:55 AM PDT 8:39 PM PDT
Moon 10:54 AM PDT 10:10 PM PDT
Length of Visible Light 13h 43m
Length of Day
12h 53m
Tomorrow will be 1m 54s shorter.
Waxing Crescent, 24% of the Moon is Illuminated
Today
Waxing Crescent
Sep 2
First Quarter
Sep 8
Full
Sep 15
Last Quarter
Sep 24
New

Today's Extremes

State Highs State Lows

Community

WunderPhotos

Upload Photos

1,748,593 photos uploaded!

WunderBlogs® & News

Nearby

Air Quality

  Air Quality AQ Index Pollutant
Yesterday Good
PM2.5
Yesterday Good
OZONE
Current Moderate
PM2.5
Current Good
OZONE
Saturday Moderate
PM2.5
Saturday Moderate
OZONE
Sunday Moderate
PM2.5
Sunday Good
OZONE
Monday Good
PM2.5
Monday Good
OZONE

Snow Depth

Station Depth Elevation
Leavitt Meadows 0 in 7200 ft
Summit Meadow 0 in 9122 ft
Monitor Pass 0 in 8350 ft
Blue Lakes 0 in 8000 ft
Forestdale Creek 0 in 8029 ft

Earthquake Activity

City Distance Mag. Time & Date
No recent earthquake activity has been reported nearby.
Minimum magnitude displayed is 2.5.

Coastal Water Temperatures

Place Temperature
La Jolla, CA 72.0 °F
San Diego, CA 73.0 °F

Nearby Weather Stations